Time;durP1;ratioP1;P1;durP2;ratioP2;P2;SDS_P1;SDS_P2;PMS_P1;PMS_P2;Temp;Humidity;BMP_temperature;BMP_pressure;BME280_temperature;BME280_humidity;BME280_pressure;Samples;Min_cycle;Max_cycle;Signal;HPM_P1;HPM_P2
2022/03/21 00:01:48;;;;;;;18.50;12.30;;;;;;;3.53;46.64;102545.99;1692414;83;21108;-65
2022/03/21 00:04:16;;;;;;;16.50;12.47;;;;;;;3.51;46.84;102542.59;1682686;84;21154;-65
2022/03/21 00:06:43;;;;;;;16.87;13.37;;;;;;;3.50;46.99;102538.25;1675274;84;21107;-64
2022/03/21 00:09:12;;;;;;;18.27;12.07;;;;;;;3.49;47.21;102540.52;1685849;84;21081;-64
2022/03/21 00:11:39;;;;;;;15.20;11.33;;;;;;;3.49;47.32;102536.56;1692080;82;21046;-65
2022/03/21 00:14:11;;;;;;;18.27;11.70;;;;;;;3.49;47.44;102534.77;1710711;81;21165;-63
2022/03/21 00:16:37;;;;;;;11.23;9.87;;;;;;;3.50;47.56;102532.53;1710453;81;21136;-71
2022/03/21 00:19:06;;;;;;;18.30;12.17;;;;;;;3.52;47.63;102533.73;1740235;82;21077;-72
2022/03/21 00:21:35;;;;;;;18.03;12.50;;;;;;;3.50;47.99;102528.57;1729169;81;21027;-67
2022/03/21 00:24:03;;;;;;;17.97;11.10;;;;;;;3.48;47.97;102525.63;1689974;81;21574;-66
2022/03/21 00:26:32;;;;;;;16.60;12.20;;;;;;;3.47;48.18;102518.67;1687442;84;21082;-65
2022/03/21 00:29:00;;;;;;;17.77;14.00;;;;;;;3.43;48.24;102512.72;1667478;84;21138;-64
2022/03/21 00:31:27;;;;;;;15.47;12.17;;;;;;;3.42;48.40;102519.39;1663265;84;22100;-64
2022/03/21 00:33:54;;;;;;;;;;;;;;;3.39;48.67;102518.23;1636914;86;21083;-67
2022/03/21 00:36:21;;;;;;;20.57;13.27;;;;;;;3.36;48.74;102517.12;1648070;85;20130;-64
2022/03/21 00:38:50;;;;;;;21.43;13.90;;;;;;;3.29;48.89;102512.65;1684541;84;21051;-65
2022/03/21 00:41:17;;;;;;;19.10;13.63;;;;;;;3.26;49.10;102510.20;1676877;84;21117;-69
2022/03/21 00:43:46;;;;;;;22.60;14.20;;;;;;;3.23;49.41;102508.58;1694461;84;21049;-67
2022/03/21 00:46:13;;;;;;;25.33;17.07;;;;;;;3.15;49.57;102518.72;1676183;84;21141;-64
2022/03/21 00:48:41;;;;;;;20.30;14.67;;;;;;;3.10;49.57;102517.64;1675831;84;21011;-65
2022/03/21 00:51:10;;;;;;;23.33;14.73;;;;;;;3.11;49.71;102518.51;1679041;84;21122;-63
2022/03/21 00:53:37;;;;;;;22.23;13.57;;;;;;;3.08;49.85;102509.45;1682942;85;21042;-66
2022/03/21 00:56:04;;;;;;;20.27;13.53;;;;;;;3.09;49.92;102512.00;1708903;81;21066;-63
2022/03/21 00:58:34;;;;;;;17.27;13.00;;;;;;;3.10;50.00;102512.37;1723647;81;21078;-64
2022/03/21 01:01:01;;;;;;;19.67;13.10;;;;;;;3.10;50.01;102513.69;1717208;81;21043;-64
2022/03/21 01:03:29;;;;;;;21.83;13.67;;;;;;;3.11;50.12;102504.86;1676498;84;21051;-63
2022/03/21 01:05:56;;;;;;;19.27;12.87;;;;;;;3.11;50.24;102506.66;1659354;84;21074;-70
2022/03/21 01:08:23;;;;;;;20.73;13.83;;;;;;;3.10;50.29;102511.53;1673467;84;21045;-64
2022/03/21 01:10:50;;;;;;;17.55;12.28;;;;;;;3.11;50.38;102504.02;1670972;84;21086;-62
2022/03/21 01:13:21;;;;;;;16.57;13.40;;;;;;;3.07;50.48;102505.09;1698407;84;21276;-65
2022/03/21 01:15:47;;;;;;;22.30;13.43;;;;;;;3.05;50.54;102510.48;1640530;85;21566;-67
2022/03/21 01:18:16;;;;;;;22.93;13.63;;;;;;;3.02;50.47;102501.89;1663890;86;22334;-69
2022/03/21 01:20:44;;;;;;;19.27;12.63;;;;;;;2.99;50.46;102502.89;1655762;85;21094;-64
2022/03/21 01:23:13;;;;;;;17.73;12.57;;;;;;;3.00;50.53;102505.92;1639396;86;21054;-64
2022/03/21 01:25:41;;;;;;;16.40;12.93;;;;;;;3.01;50.38;102512.88;1649377;86;21046;-66
2022/03/21 01:28:08;;;;;;;17.43;11.13;;;;;;;3.01;50.34;102499.70;1649012;86;21071;-64
2022/03/21 01:30:36;;;;;;;;;;;;;;;3.04;50.22;102505.29;1648381;86;21107;-64
2022/03/21 01:33:03;;;;;;;15.07;11.67;;;;;;;3.03;50.22;102494.36;1643579;86;20430;-65
2022/03/21 01:35:30;;;;;;;19.63;10.93;;;;;;;3.00;50.18;102497.19;1618288;87;21075;-66
2022/03/21 01:37:57;;;;;;;15.10;11.03;;;;;;;3.02;50.08;102486.09;1688093;84;21801;-67
2022/03/21 01:40:24;;;;;;;;;;;;;;;3.01;50.08;102488.33;1688391;84;21008;-64
2022/03/21 01:42:51;;;;;;;14.30;10.83;;;;;;;3.04;50.07;102501.34;1684843;84;20151;-65
2022/03/21 01:45:19;;;;;;;12.47;10.77;;;;;;;2.95;50.12;102500.06;1691025;83;21040;-64
2022/03/21 01:47:47;;;;;;;18.73;11.53;;;;;;;2.96;50.16;102500.45;1694360;83;21115;-64
2022/03/21 01:50:15;;;;;;;15.70;10.90;;;;;;;2.96;50.16;102493.87;1704069;83;21468;-68
2022/03/21 01:52:43;;;;;;;12.43;10.47;;;;;;;2.92;50.24;102491.88;1690845;83;21061;-63
2022/03/21 01:58:00;;;;;;;15.93;10.63;;;;;;;2.89;50.36;102490.71;1639350;85;21138;-66
2022/03/21 02:00:28;;;;;;;16.10;12.03;;;;;;;2.89;50.44;102488.55;1649448;87;21053;-64
2022/03/21 02:02:55;;;;;;;16.07;11.57;;;;;;;2.86;50.58;102493.98;1616232;86;21070;-64
2022/03/21 02:05:22;;;;;;;13.27;10.03;;;;;;;2.85;50.62;102491.82;1632294;88;21075;-65
2022/03/21 02:07:49;;;;;;;;;;;;;;;2.86;50.68;102492.22;1631774;86;21059;-63
2022/03/21 02:10:15;;;;;;;15.10;11.10;;;;;;;2.85;50.68;102491.82;1638468;87;20175;-65
2022/03/21 02:12:44;;;;;;;14.10;11.17;;;;;;;2.83;50.75;102495.02;1635543;86;21589;-63
2022/03/21 02:15:12;;;;;;;16.77;11.23;;;;;;;2.80;51.15;102498.28;1692737;83;21192;-69
2022/03/21 02:17:43;;;;;;;17.73;11.63;;;;;;;2.75;51.13;102498.98;1686075;83;21034;-64
2022/03/21 02:20:13;;;;;;;17.43;11.77;;;;;;;2.72;51.21;102496.07;1627922;86;21086;-66
2022/03/21 02:23:08;;;;;;;20.10;12.93;;;;;;;2.69;51.29;102500.17;1689633;83;21557;-68
2022/03/21 02:25:36;;;;;;;20.90;13.07;;;;;;;2.69;51.39;102507.63;1678473;84;21057;-64
2022/03/21 02:28:09;;;;;;;20.33;12.27;;;;;;;2.69;51.40;102508.08;1682563;84;21427;-64
2022/03/21 02:30:42;;;;;;;17.33;12.10;;;;;;;2.71;51.33;102499.62;1660891;84;21147;-67
2022/03/21 02:33:11;;;;;;;20.60;13.73;;;;;;;2.72;51.43;102497.38;1649858;84;21110;-65
2022/03/21 02:35:46;;;;;;;17.20;13.10;;;;;;;2.73;51.39;102492.48;1656247;84;21549;-64
2022/03/21 02:38:14;;;;;;;20.33;14.07;;;;;;;2.75;51.47;102491.09;1670267;84;21089;-66
2022/03/21 02:40:41;;;;;;;21.70;13.50;;;;;;;2.75;51.51;102497.23;1670122;84;21569;-66
2022/03/21 02:43:09;;;;;;;20.82;13.80;;;;;;;2.76;51.63;102502.86;1670902;84;21620;-63
2022/03/21 02:45:36;;;;;;;19.63;15.07;;;;;;;2.71;51.76;102494.36;1683261;83;21021;-71
2022/03/21 02:48:03;;;;;;;17.90;14.70;;;;;;;2.72;51.89;102494.75;1688896;83;21119;-64
2022/03/21 02:50:49;;;;;;;20.43;15.10;;;;;;;2.70;51.93;102493.98;1690644;83;21140;-65
2022/03/21 02:53:17;;;;;;;26.23;17.63;;;;;;;2.69;51.89;102497.55;1657304;85;21635;-68
2022/03/21 02:55:44;;;;;;;23.37;15.93;;;;;;;2.66;52.02;102496.41;1684208;83;21584;-64
2022/03/21 02:58:11;;;;;;;22.47;16.37;;;;;;;2.66;52.15;102487.20;1673008;84;21084;-65
2022/03/21 03:00:39;;;;;;;25.37;17.40;;;;;;;2.67;52.18;102488.88;1677777;83;21129;-64
2022/03/21 03:06:20;;;;;;;29.07;19.80;;;;;;;2.71;52.30;102493.04;1801188;78;22250;-64
2022/03/21 03:08:47;;;;;;;27.60;19.37;;;;;;;2.65;52.31;102489.44;1785816;80;21077;-64
2022/03/21 03:11:14;;;;;;;28.03;20.63;;;;;;;2.55;52.50;102491.72;1781784;80;21105;-65
2022/03/21 03:13:42;;;;;;;31.97;22.50;;;;;;;2.44;52.65;102489.66;1726092;82;21439;-66
2022/03/21 03:16:09;;;;;;;31.30;22.43;;;;;;;2.33;52.99;102494.17;1729101;82;21174;-65
2022/03/21 03:18:37;;;;;;;36.20;23.73;;;;;;;2.24;53.33;102485.48;1711986;82;21068;-71
2022/03/21 03:21:05;;;;;;;37.87;24.60;;;;;;;2.18;53.51;102489.73;1729945;82;21540;-67
2022/03/21 03:23:34;;;;;;;35.37;24.17;;;;;;;2.14;53.65;102490.36;1715082;83;21092;-65
2022/03/21 03:26:03;;;;;;;40.33;24.73;;;;;;;2.13;53.72;102489.98;1717185;83;21014;-64
2022/03/21 03:28:31;;;;;;;38.30;25.93;;;;;;;2.14;53.73;102489.03;1729058;83;21046;-65
2022/03/21 03:31:00;;;;;;;47.03;28.00;;;;;;;2.18;53.86;102490.20;1689625;83;21085;-69
2022/03/21 03:33:29;;;;;;;39.10;26.07;;;;;;;2.18;53.91;102490.20;1667272;85;21019;-66
2022/03/21 03:35:56;;;;;;;48.40;29.07;;;;;;;2.24;53.87;102488.55;1689914;84;21030;-64
2022/03/21 03:38:23;;;;;;;43.77;28.90;;;;;;;2.26;53.99;102489.32;1685041;83;21038;-66
2022/03/21 03:40:50;;;;;;;49.93;28.57;;;;;;;2.28;54.00;102490.09;1697326;84;21133;-64
2022/03/21 03:43:17;;;;;;;50.40;31.17;;;;;;;2.25;54.11;102490.27;1673174;86;21051;-66
2022/03/21 03:45:45;;;;;;;50.53;32.50;;;;;;;2.23;54.20;102484.24;1687002;83;21707;-63
2022/03/21 03:48:12;;;;;;;54.77;33.70;;;;;;;2.16;54.61;102482.38;1668773;83;21174;-65
2022/03/21 03:50:41;;;;;;;60.43;35.77;;;;;;;2.10;54.52;102484.88;1661555;85;21048;-64
2022/03/21 03:53:08;;;;;;;68.67;36.37;;;;;;;2.04;54.66;102481.73;1681495;83;21615;-64
2022/03/21 03:55:35;;;;;;;56.97;35.77;;;;;;;2.03;54.77;102476.07;1680596;83;21079;-73
2022/03/21 03:58:04;;;;;;;63.80;36.33;;;;;;;2.02;54.82;102475.23;1691857;83;21336;-63
2022/03/21 04:00:31;;;;;;;67.53;36.97;;;;;;;2.04;54.84;102477.31;1663120;84;21504;-62
2022/03/21 04:05:44;;;;;;;66.87;37.73;;;;;;;1.99;54.94;102468.80;1694731;84;21593;-68
2022/03/21 04:08:12;;;;;;;61.13;38.93;;;;;;;1.95;54.96;102478.63;1670256;83;21604;-65
2022/03/21 04:10:38;;;;;;;71.53;42.50;;;;;;;1.93;55.12;102482.28;1746058;81;21062;-64
2022/03/21 04:13:05;;;;;;;78.70;45.70;;;;;;;1.92;55.19;102482.75;1711173;82;21082;-64
2022/03/21 04:15:33;;;;;;;85.60;51.83;;;;;;;1.93;55.22;102477.86;1682824;83;21177;-64
2022/03/21 04:18:04;;;;;;;98.07;56.13;;;;;;;1.94;55.19;102470.81;1716093;83;21066;-67
2022/03/21 04:20:32;;;;;;;125.47;76.03;;;;;;;1.98;55.18;102472.82;1719820;83;21101;-64
2022/03/21 04:23:00;;;;;;;160.70;88.57;;;;;;;2.11;55.26;102473.87;1712888;82;21054;-64
2022/03/21 04:25:28;;;;;;;171.83;95.80;;;;;;;2.42;55.14;102473.10;1695900;83;21109;-65
2022/03/21 04:27:55;;;;;;;215.10;118.77;;;;;;;2.90;54.35;102470.03;1717340;82;21146;-65
2022/03/21 04:30:23;;;;;;;208.80;118.50;;;;;;;3.44;53.03;102467.42;1702904;83;21693;-68
2022/03/21 04:32:51;;;;;;;220.47;120.83;;;;;;;3.97;51.88;102469.97;1711923;83;21055;-65
2022/03/21 04:35:18;;;;;;;221.07;117.13;;;;;;;4.53;50.60;102466.09;1719489;82;21228;-67
2022/03/21 04:37:45;;;;;;;198.20;110.97;;;;;;;5.08;49.26;102459.06;1719003;82;21051;-65
2022/03/21 04:40:12;;;;;;;209.47;112.90;;;;;;;5.58;47.97;102459.31;1714047;82;21043;-66
2022/03/21 04:42:41;;;;;;;209.27;116.40;;;;;;;5.99;46.24;102457.83;1704610;82;21150;-68
2022/03/21 04:45:09;;;;;;;215.60;121.70;;;;;;;6.39;45.49;102456.83;1699172;82;21069;-66
2022/03/21 04:47:39;;;;;;;216.60;123.23;;;;;;;6.84;44.64;102463.76;1707427;83;21096;-67
2022/03/21 04:50:07;;;;;;;199.23;118.57;;;;;;;7.29;43.73;102460.00;1709550;83;21124;-65
2022/03/21 04:52:34;;;;;;;217.73;120.20;;;;;;;7.68;42.02;102460.58;1714987;83;21631;-66
2022/03/21 04:55:02;;;;;;;205.33;115.70;;;;;;;7.87;41.73;102464.48;1711814;82;21038;-69
2022/03/21 04:57:30;;;;;;;207.67;115.83;;;;;;;8.03;40.94;102470.30;1715751;83;21054;-65
2022/03/21 04:59:59;;;;;;;182.80;109.77;;;;;;;8.18;40.43;102462.95;1709488;82;21851;-69
2022/03/21 05:02:27;;;;;;;167.67;95.53;;;;;;;8.27;40.17;102460.89;1682146;83;21006;-69
2022/03/21 05:04:54;;;;;;;170.73;100.03;;;;;;;8.39;39.96;102459.07;1678605;84;21267;-66
2022/03/21 05:07:22;;;;;;;169.33;94.70;;;;;;;8.39;39.90;102458.58;1680178;83;22256;-69
2022/03/21 05:09:49;;;;;;;159.23;92.30;;;;;;;8.55;39.95;102465.36;1684000;84;21090;-66
2022/03/21 05:12:16;;;;;;;165.37;96.20;;;;;;;8.86;39.30;102458.91;1682146;84;22294;-65
2022/03/21 05:14:43;;;;;;;167.43;92.77;;;;;;;9.19;38.75;102465.07;1665198;84;21054;-71
2022/03/21 05:17:12;;;;;;;170.90;100.80;;;;;;;9.54;38.02;102464.80;1669581;84;21534;-66
2022/03/21 05:19:41;;;;;;;174.43;97.77;;;;;;;9.78;37.37;102478.34;1646842;84;21050;-66
2022/03/21 05:22:08;;;;;;;159.77;91.23;;;;;;;9.82;37.02;102473.95;1644213;84;21230;-66
2022/03/21 05:35:54;;;;;;;140.12;78.75;;;;;;;9.20;38.21;102478.75;1678016;84;21070;-65
2022/03/21 05:38:07;;;;;;;91.97;51.87;;;;;;;9.32;38.18;102476.38;1690499;83;21096;-65
2022/03/21 05:40:41;;;;;;;88.77;51.70;;;;;;;9.31;38.27;102476.05;1687400;83;21633;-64
2022/03/21 05:43:05;;;;;;;82.87;49.40;;;;;;;9.53;38.15;102472.41;1684256;83;21119;-68
2022/03/21 05:45:36;;;;;;;72.80;44.70;;;;;;;9.82;37.60;102469.95;1676744;84;21090;-67
2022/03/21 05:50:48;;;;;;;68.83;38.90;;;;;;;10.39;36.86;102460.22;1665010;84;21377;-73
2022/03/21 05:53:15;;;;;;;65.77;37.83;;;;;;;10.77;36.33;102472.80;1671754;84;21078;-73
2022/03/21 05:55:44;;;;;;;59.97;36.07;;;;;;;11.12;35.82;102478.63;1673441;83;21019;-72
2022/03/21 05:58:11;;;;;;;51.77;33.17;;;;;;;11.22;35.22;102475.46;1694568;83;21081;-72
2022/03/21 06:00:39;;;;;;;51.70;31.03;;;;;;;11.23;35.24;102480.66;1693568;83;21556;-72
2022/03/21 06:03:08;;;;;;;58.70;33.07;;;;;;;11.14;35.45;102476.16;1688305;83;21131;-72
2022/03/21 06:05:35;;;;;;;55.20;32.03;;;;;;;11.04;35.83;102480.17;1706472;82;21096;-71
2022/03/21 06:08:02;;;;;;;63.73;35.40;;;;;;;11.07;35.49;102491.05;1700706;83;21025;-71
2022/03/21 06:10:31;;;;;;;54.80;32.20;;;;;;;11.05;35.89;102484.50;1695069;83;20998;-72
2022/03/21 06:12:58;;;;;;;50.47;32.17;;;;;;;11.17;35.64;102487.05;1668829;83;21144;-71
2022/03/21 06:15:25;;;;;;;49.37;32.50;;;;;;;11.12;35.81;102486.14;1664053;84;21065;-73
2022/03/21 06:17:59;;;;;;;53.50;32.97;;;;;;;11.06;36.19;102494.21;1663296;85;21624;-73
2022/03/21 06:20:23;;;;;;;48.80;32.60;;;;;;;11.13;36.08;102493.65;1664307;85;21176;-73
2022/03/21 06:22:50;;;;;;;41.43;26.30;;;;;;;11.23;36.09;102500.69;1662989;84;21041;-71
2022/03/21 06:25:17;;;;;;;29.03;20.67;;;;;;;11.22;36.01;102496.81;1638937;85;21137;-70
2022/03/21 06:27:48;;;;;;;29.93;18.83;;;;;;;11.02;36.54;102498.61;1647617;85;21093;-72
2022/03/21 06:30:15;;;;;;;27.57;19.10;;;;;;;11.22;36.59;102499.48;1644322;85;21060;-72
2022/03/21 06:32:45;;;;;;;22.87;16.27;;;;;;;11.16;36.42;102509.39;1651207;85;21657;-72
2022/03/21 06:35:12;;;;;;;23.60;16.30;;;;;;;11.09;36.85;102499.75;1649664;85;21081;-72
2022/03/21 06:37:41;;;;;;;20.40;14.70;;;;;;;11.30;36.52;102508.50;1648711;85;21697;-72
2022/03/21 06:40:10;;;;;;;19.57;14.33;;;;;;;11.50;36.36;102505.81;1649855;85;21070;-73
2022/03/21 06:42:41;;;;;;;16.73;13.03;;;;;;;11.52;36.24;102508.35;1645708;86;21630;-72
2022/03/21 06:45:09;;;;;;;;;;;;;;;11.25;36.61;102510.73;1643798;86;21045;-70
2022/03/21 06:47:36;;;;;;;18.60;12.23;;;;;;;10.69;37.44;102517.50;1641107;85;20129;-72
2022/03/21 06:50:05;;;;;;;15.53;13.03;;;;;;;9.99;38.98;102515.63;1645916;85;21045;-67
2022/03/21 06:52:35;;;;;;;21.20;13.40;;;;;;;9.29;40.40;102519.24;1646090;85;21025;-67
2022/03/21 06:55:01;;;;;;;15.23;12.67;;;;;;;8.74;41.30;102525.41;1650529;85;21379;-69
2022/03/21 06:57:28;;;;;;;19.17;13.30;;;;;;;8.32;42.58;102525.13;1658008;83;21145;-69
2022/03/21 06:59:55;;;;;;;;;;;;;;;7.81;43.65;102525.53;1658513;85;21058;-66
2022/03/21 07:02:23;;;;;;;16.63;12.97;;;;;;;7.49;44.21;102523.48;1713354;82;20225;-68
2022/03/21 07:04:50;;;;;;;15.67;12.50;;;;;;;7.34;44.91;102516.19;1712888;82;21113;-67
2022/03/21 07:07:17;;;;;;;15.53;13.20;;;;;;;7.34;45.68;102519.33;1711491;82;21106;-67
2022/03/21 07:09:45;;;;;;;16.43;14.13;;;;;;;7.32;45.78;102522.09;1720857;82;22318;-65
2022/03/21 07:12:14;;;;;;;18.07;13.23;;;;;;;7.24;45.95;102517.84;1716961;82;21018;-65
2022/03/21 07:14:41;;;;;;;18.23;14.03;;;;;;;7.17;46.55;102523.22;1715185;82;21145;-66
2022/03/21 07:17:08;;;;;;;14.20;12.70;;;;;;;7.10;46.56;102514.89;1714317;82;21513;-66
2022/03/21 07:19:35;;;;;;;16.50;12.70;;;;;;;7.16;46.84;102510.45;1707524;82;21533;-65
2022/03/21 07:22:04;;;;;;;16.90;12.87;;;;;;;7.17;46.73;102508.15;1715967;82;21510;-66
2022/03/21 07:24:30;;;;;;;20.33;13.23;;;;;;;7.18;46.75;102512.51;1716397;82;21092;-68
2022/03/21 07:26:57;;;;;;;15.47;11.97;;;;;;;7.23;46.83;102509.99;1713586;82;21529;-67
2022/03/21 07:29:24;;;;;;;17.03;13.10;;;;;;;7.26;46.77;102506.63;1711161;82;21089;-66
2022/03/21 07:31:52;;;;;;;13.70;11.83;;;;;;;7.20;46.39;102513.23;1713292;82;21074;-65
2022/03/21 07:34:19;;;;;;;20.33;14.13;;;;;;;7.19;46.68;102512.86;1713337;82;21017;-66
2022/03/21 07:36:46;;;;;;;18.23;13.53;;;;;;;7.16;46.82;102502.49;1711096;82;21389;-65
2022/03/21 07:39:14;;;;;;;17.87;13.65;;;;;;;7.11;46.96;102499.33;1717626;82;21136;-65
2022/03/21 07:41:41;;;;;;;15.37;12.50;;;;;;;7.15;46.84;102515.86;1716977;82;21113;-65
2022/03/21 07:44:08;;;;;;;17.27;12.50;;;;;;;7.18;46.95;102516.97;1709861;81;21645;-66
2022/03/21 07:49:20;;;;;;;15.27;11.43;;;;;;;7.29;46.55;102517.48;1695700;83;20989;-64
2022/03/21 07:51:48;;;;;;;14.83;12.13;;;;;;;7.26;46.47;102514.59;1697077;83;21168;-67
2022/03/21 07:54:17;;;;;;;16.27;12.13;;;;;;;7.30;46.50;102516.05;1706350;83;21979;-67
2022/03/21 07:56:45;;;;;;;14.13;12.07;;;;;;;7.34;46.39;102516.67;1689482;83;21090;-67
2022/03/21 07:59:12;;;;;;;13.93;11.13;;;;;;;7.36;46.40;102512.94;1690520;83;21069;-69
2022/03/21 08:01:39;;;;;;;14.80;12.17;;;;;;;7.32;46.86;102507.98;1717049;81;21851;-66
2022/03/21 08:04:09;;;;;;;14.47;11.93;;;;;;;7.32;46.53;102508.83;1733778;81;21004;-66
2022/03/21 08:06:35;;;;;;;14.67;11.50;;;;;;;7.30;46.71;102512.08;1737717;81;20995;-67
2022/03/21 08:09:04;;;;;;;13.20;11.83;;;;;;;7.37;46.81;102504.52;1726435;81;21010;-65
2022/03/21 08:11:31;;;;;;;16.10;11.03;;;;;;;7.37;46.87;102504.52;1733207;81;21099;-66
2022/03/21 08:13:57;;;;;;;;;;;;;;;7.36;46.90;102501.48;1734228;81;21089;-66
2022/03/21 08:16:24;;;;;;;15.20;11.13;;;;;;;7.42;46.73;102499.70;1736119;81;20146;-66
2022/03/21 08:18:52;;;;;;;18.13;11.63;;;;;;;7.45;46.83;102501.30;1739114;82;21647;-68
2022/03/21 08:21:20;;;;;;;13.07;10.70;;;;;;;7.50;46.53;102501.31;1733922;81;21007;-68
2022/03/21 08:23:48;;;;;;;13.17;10.27;;;;;;;7.55;46.52;102495.65;1744471;81;21050;-65
2022/03/21 08:26:16;;;;;;;16.13;11.27;;;;;;;7.68;46.35;102495.57;1729562;81;21052;-66
2022/03/21 08:28:45;;;;;;;12.23;9.90;;;;;;;7.76;46.04;102488.73;1738337;81;21105;-64
2022/03/21 08:31:13;;;;;;;16.57;10.17;;;;;;;7.83;45.87;102491.74;1736472;81;21566;-70
2022/03/21 08:33:43;;;;;;;10.43;8.67;;;;;;;7.90;45.74;102491.64;1722070;81;21119;-66
2022/03/21 08:36:12;;;;;;;11.27;7.77;;;;;;;8.01;45.30;102486.00;1692375;83;21117;-66
2022/03/21 08:38:44;;;;;;;10.63;8.47;;;;;;;8.09;44.97;102484.91;1692198;83;21261;-70
2022/03/21 08:41:11;;;;;;;9.10;7.97;;;;;;;8.13;44.81;102484.54;1693714;83;21062;-69
2022/03/21 08:43:38;;;;;;;15.03;7.00;;;;;;;8.17;44.57;102486.48;1690332;83;21145;-70
2022/03/21 08:46:07;;;;;;;8.67;5.90;;;;;;;8.22;44.46;102479.49;1660179;85;21102;-69
2022/03/21 08:51:20;;;;;;;6.63;5.93;;;;;;;8.41;43.80;102480.22;1672117;84;21153;-66
2022/03/21 08:53:48;;;;;;;8.10;5.23;;;;;;;8.43;43.41;102478.31;1673246;84;21089;-67
2022/03/21 08:56:15;;;;;;;6.27;5.57;;;;;;;8.43;43.14;102478.31;1690787;83;21148;-69
2022/03/21 08:58:43;;;;;;;6.60;5.17;;;;;;;8.44;43.24;102477.33;1706708;83;21060;-65
2022/03/21 09:01:11;;;;;;;5.60;3.97;;;;;;;8.47;42.96;102481.08;1720648;82;21080;-65
2022/03/21 09:03:38;;;;;;;;;;;;;;;8.57;42.79;102471.42;1718985;83;22081;-66
2022/03/21 09:06:06;;;;;;;4.83;4.13;;;;;;;8.70;42.39;102473.91;1696725;83;20196;-66
2022/03/21 09:08:35;;;;;;;5.20;4.20;;;;;;;8.75;42.18;102471.73;1698456;83;21033;-66
2022/03/21 09:11:04;;;;;;;5.23;3.33;;;;;;;8.85;41.85;102470.01;1705681;83;21117;-69
2022/03/21 09:13:32;;;;;;;5.83;3.63;;;;;;;8.95;41.66;102468.80;1698680;83;21103;-65
2022/03/21 09:16:00;;;;;;;3.13;2.63;;;;;;;9.01;41.35;102472.28;1698440;83;21127;-68
2022/03/21 09:18:27;;;;;;;9.93;3.47;;;;;;;9.01;41.14;102460.31;1697167;83;21052;-67
2022/03/21 09:20:56;;;;;;;5.23;3.40;;;;;;;9.02;41.10;102467.30;1696590;83;21044;-66
2022/03/21 09:23:24;;;;;;;6.03;4.40;;;;;;;9.08;40.93;102458.84;1706308;83;21198;-67
2022/03/21 09:25:51;;;;;;;6.73;3.87;;;;;;;9.21;40.81;102452.48;1708091;83;21028;-66
2022/03/21 09:28:17;;;;;;;3.60;3.30;;;;;;;9.37;40.67;102452.06;1672773;85;21562;-66
2022/03/21 09:30:46;;;;;;;3.87;3.57;;;;;;;9.53;40.16;102449.78;1707039;82;21069;-67
2022/03/21 09:33:15;;;;;;;8.77;3.90;;;;;;;9.68;39.74;102447.64;1710971;82;21137;-67
2022/03/21 09:35:43;;;;;;;4.67;3.37;;;;;;;9.84;39.32;102450.69;1700173;84;21576;-67
2022/03/21 09:38:11;;;;;;;6.20;3.33;;;;;;;9.93;38.67;102443.73;1705642;83;21145;-66
2022/03/21 09:40:41;;;;;;;2.97;2.50;;;;;;;10.02;38.63;102438.08;1701484;83;22366;-68
2022/03/21 09:43:10;;;;;;;7.00;3.03;;;;;;;10.14;38.18;102437.86;1702056;84;21109;-66
2022/03/21 09:45:38;;;;;;;3.87;2.73;;;;;;;10.24;37.67;102433.89;1728769;81;21053;-67
2022/03/21 09:48:12;;;;;;;3.37;2.27;;;;;;;10.30;37.69;102432.52;1731853;81;21060;-67
2022/03/21 09:50:42;;;;;;;4.37;2.87;;;;;;;10.38;37.31;102424.73;1733203;81;21833;-69
2022/03/21 09:53:13;;;;;;;3.63;2.80;;;;;;;10.46;36.82;102424.88;1743323;81;21042;-67
2022/03/21 09:55:42;;;;;;;3.60;2.40;;;;;;;10.46;36.51;102422.22;1724393;81;21574;-71
2022/03/21 09:58:11;;;;;;;4.00;2.50;;;;;;;10.42;36.30;102419.97;1677833;84;21564;-65
2022/03/21 10:00:42;;;;;;;3.83;1.70;;;;;;;10.36;36.58;102420.49;1678153;82;21177;-68
2022/03/21 10:03:09;;;;;;;3.30;2.37;;;;;;;10.39;36.71;102425.56;1673456;84;21095;-67
2022/03/21 10:05:46;;;;;;;3.20;1.90;;;;;;;10.48;36.65;102419.42;1672632;84;21055;-67
2022/03/21 10:08:28;;;;;;;2.45;1.62;;;;;;;10.58;36.33;102416.77;1671375;84;21094;-66
2022/03/21 10:11:01;;;;;;;6.23;1.93;;;;;;;10.69;36.32;102414.81;1668957;84;21084;-70
2022/03/21 10:13:32;;;;;;;2.63;1.57;;;;;;;10.76;35.81;102406.28;1675958;84;21212;-66
2022/03/21 10:16:15;;;;;;;7.17;2.07;;;;;;;10.77;35.86;102414.12;1682034;83;21073;-70
2022/03/21 10:18:57;;;;;;;1.90;1.60;;;;;;;10.76;35.71;102403.61;1672700;84;21761;-68
2022/03/21 10:21:28;;;;;;;2.33;1.33;;;;;;;10.82;35.92;102404.38;1665846;84;21416;-68
2022/03/21 10:24:10;;;;;;;1.80;1.53;;;;;;;10.99;35.45;102413.02;1648528;85;21680;-69
2022/03/21 10:26:42;;;;;;;1.73;1.30;;;;;;;11.08;35.26;102403.34;1643538;85;21033;-69
2022/03/21 10:29:12;;;;;;;1.87;1.30;;;;;;;11.09;35.32;102403.67;1646674;85;21489;-67
2022/03/21 10:31:46;;;;;;;1.47;0.97;;;;;;;11.15;35.26;102404.47;1643053;85;21116;-69
2022/03/21 10:34:16;;;;;;;2.27;0.87;;;;;;;11.22;34.95;102400.72;1638008;85;21220;-67
2022/03/21 10:37:08;;;;;;;3.50;1.10;;;;;;;11.19;34.55;102398.33;1664976;85;21173;-68
2022/03/21 10:39:39;;;;;;;1.73;0.80;;;;;;;11.20;34.83;102402.69;1656361;85;21047;-68
2022/03/21 10:42:12;;;;;;;0.93;0.50;;;;;;;11.21;34.53;102399.05;1665226;85;22138;-69
2022/03/21 10:44:39;;;;;;;1.70;0.50;;;;;;;11.12;34.49;102398.06;1654125;85;21621;-69
2022/03/21 10:47:08;;;;;;;1.60;0.70;;;;;;;11.10;34.62;102394.20;1675113;84;21076;-67
2022/03/21 10:49:43;;;;;;;0.77;0.77;;;;;;;11.16;34.65;102391.45;1671128;84;21052;-68
2022/03/21 10:52:18;;;;;;;1.57;0.47;;;;;;;11.21;34.21;102377.70;1672885;84;21012;-66
2022/03/21 10:54:49;;;;;;;1.10;0.43;;;;;;;11.24;34.27;102376.89;1666334;84;21088;-67
2022/03/21 10:57:36;;;;;;;0.83;0.60;;;;;;;11.28;34.63;102366.30;1691640;83;21142;-67
2022/03/21 11:00:22;;;;;;;1.07;0.40;;;;;;;11.36;34.50;102366.91;1694382;83;21153;-69
2022/03/21 11:02:58;;;;;;;1.20;0.60;;;;;;;11.39;34.44;102371.95;1663115;85;22178;-67
2022/03/21 11:05:30;;;;;;;0.80;0.80;;;;;;;11.41;34.44;102359.80;1693378;83;21054;-68
2022/03/21 11:07:57;;;;;;;1.50;0.43;;;;;;;11.43;34.65;102373.38;1695757;83;21590;-68
2022/03/21 11:10:26;;;;;;;2.80;0.90;;;;;;;11.46;34.74;102365.05;1694361;83;21129;-67
2022/03/21 11:12:56;;;;;;;2.67;1.03;;;;;;;11.51;34.85;102356.63;1685995;83;21041;-68
2022/03/21 11:15:25;;;;;;;2.73;0.70;;;;;;;11.54;34.85;102360.82;1701977;83;21123;-69
2022/03/21 11:17:55;;;;;;;0.97;0.80;;;;;;;11.54;34.94;102363.49;1699870;83;21029;-67
2022/03/21 11:20:22;;;;;;;1.70;1.27;;;;;;;11.55;35.00;102359.34;1697965;83;22161;-69
2022/03/21 11:22:48;;;;;;;2.40;1.90;;;;;;;11.59;35.09;102360.73;1688990;83;21097;-67
2022/03/21 11:25:17;;;;;;;2.13;1.60;;;;;;;11.63;35.14;102354.61;1652231;84;21597;-68
2022/03/21 11:28:23;;;;;;;4.13;1.63;;;;;;;11.66;35.20;102356.50;1664150;85;21072;-67
2022/03/21 11:31:13;;;;;;;2.83;1.47;;;;;;;11.68;35.16;102348.34;1641359;86;21530;-68
2022/03/21 11:34:10;;;;;;;1.30;0.90;;;;;;;11.66;35.20;102348.48;1670492;85;21530;-67
2022/03/21 11:36:51;;;;;;;4.37;1.00;;;;;;;11.66;35.21;102346.31;1694546;83;21136;-67
2022/03/21 11:39:20;;;;;;;1.83;1.60;;;;;;;11.58;35.26;102343.01;1646138;85;21239;-68
2022/03/21 11:42:09;;;;;;;4.37;1.90;;;;;;;11.54;35.44;102340.79;1698194;83;21145;-66
2022/03/21 11:44:36;;;;;;;5.65;2.00;;;;;;;11.56;35.45;102338.81;1699758;83;21052;-67
2022/03/21 11:47:23;;;;;;;5.27;1.20;;;;;;;11.57;35.42;102340.52;1684166;84;21081;-69
2022/03/21 11:49:53;;;;;;;6.40;1.70;;;;;;;11.53;35.39;102337.76;1687036;83;22461;-68
2022/03/21 11:52:19;;;;;;;4.50;1.37;;;;;;;11.50;35.52;102330.89;1671578;84;21121;-67
2022/03/21 11:54:46;;;;;;;1.87;1.70;;;;;;;11.52;35.55;102332.09;1689696;83;21041;-67
2022/03/21 11:57:27;;;;;;;3.10;1.50;;;;;;;11.48;35.69;102327.02;1658635;85;21141;-68